Time;durP1;ratioP1;P1;durP2;ratioP2;P2;SDS_P1;SDS_P2;PMS_P1;PMS_P2;Temp;Humidity;BMP_temperature;BMP_pressure;BME280_temperature;BME280_humidity;BME280_pressure;Samples;Min_cycle;Max_cycle;Signal;HPM_P1;HPM_P2
2022/08/12 03:02:45;;;;;;;12.05;8.60;;;18.20;99.90;;;;;;4954882;29;20130;-81
2022/08/12 03:05:14;;;;;;;11.15;7.75;;;18.10;99.90;;;;;;4971974;28;20415;-83
2022/08/12 03:08:03;;;;;;;11.05;7.95;;;18.10;99.90;;;;;;4953653;28;20042;-82
2022/08/12 03:10:34;;;;;;;9.35;7.78;;;18.10;99.90;;;;;;4936048;29;20035;-82
2022/08/12 03:13:02;;;;;;;12.10;8.88;;;18.00;99.90;;;;;;4920202;29;20048;-82
2022/08/12 03:15:30;;;;;;;11.23;7.93;;;18.00;99.90;;;;;;4936193;29;20051;-81
2022/08/12 03:18:20;;;;;;;13.15;8.93;;;18.00;99.90;;;;;;4938096;29;20052;-82
2022/08/12 03:20:46;;;;;;;12.75;8.45;;;18.00;99.90;;;;;;4935735;29;20608;-81
2022/08/12 03:23:14;;;;;;;15.52;9.50;;;17.90;99.90;;;;;;4937581;29;20048;-81
2022/08/12 03:25:41;;;;;;;13.02;8.43;;;17.90;99.90;;;;;;4936058;29;20043;-83
2022/08/12 03:28:11;;;;;;;13.75;8.90;;;17.90;99.90;;;;;;4936529;29;20040;-81
2022/08/12 03:30:39;;;;;;;10.02;7.95;;;17.90;99.90;;;;;;4936489;29;20036;-81
2022/08/12 03:33:06;;;;;;;12.05;8.68;;;17.90;99.90;;;;;;4935950;29;20048;-82
2022/08/12 03:35:35;;;;;;;13.90;8.60;;;17.80;99.90;;;;;;4935832;29;20039;-83
2022/08/12 03:38:05;;;;;;;13.70;8.65;;;17.80;99.90;;;;;;4935616;29;20047;-82
2022/08/12 04:00:22;;;;;;;12.77;9.00;;;17.70;99.90;;;;;;4935702;29;20043;-82
2022/08/12 04:02:54;;;;;;;14.82;9.55;;;17.70;99.90;;;;;;4935379;29;20496;-80
2022/08/12 04:05:20;;;;;;;11.43;9.60;;;17.70;99.90;;;;;;4935558;29;20078;-81
2022/08/12 04:07:47;;;;;;;12.25;9.90;;;17.60;99.90;;;;;;4935495;29;20052;-81
2022/08/12 04:10:12;;;;;;;12.98;9.38;;;17.60;99.90;;;;;;4919216;29;20043;-80
2022/08/12 04:15:27;;;;;;;11.65;9.13;;;17.60;99.90;;;;;;4936426;29;20373;-82
2022/08/12 04:17:54;;;;;;;17.10;10.13;;;17.50;99.90;;;;;;4919685;29;20095;-82
2022/08/12 04:20:21;;;;;;;13.13;9.02;;;17.50;99.90;;;;;;4919182;29;20069;-81
2022/08/12 04:22:47;;;;;;;12.25;9.68;;;17.50;99.90;;;;;;4936973;29;20059;-80
2022/08/12 04:25:13;;;;;;;13.05;9.82;;;17.50;99.90;;;;;;4936690;29;20036;-82
2022/08/12 04:27:43;;;;;;;12.05;8.93;;;17.50;99.90;;;;;;4936000;29;20134;-81
2022/08/12 04:30:10;;;;;;;11.55;8.23;;;17.40;99.90;;;;;;4936031;29;20035;-82
2022/08/12 04:32:35;;;;;;;12.57;9.15;;;17.40;99.90;;;;;;4935424;29;20083;-81
2022/08/12 04:35:02;;;;;;;13.18;9.45;;;17.40;99.90;;;;;;4935262;29;20086;-81
2022/08/12 04:37:28;;;;;;;13.52;10.10;;;17.50;99.90;;;;;;4935471;29;20040;-82
2022/08/12 04:39:55;;;;;;;12.63;9.30;;;17.40;99.90;;;;;;4934892;29;20073;-80
2022/08/12 04:42:24;;;;;;;13.15;8.88;;;17.50;99.90;;;;;;4936635;29;20039;-81
2022/08/12 04:44:50;;;;;;;10.60;9.00;;;17.40;99.90;;;;;;4938924;29;20102;-80
2022/08/12 04:47:16;;;;;;;14.18;9.70;;;17.40;99.90;;;;;;4938596;29;20051;-82
2022/08/12 04:49:44;;;;;;;12.75;9.00;;;17.40;99.90;;;;;;4923070;29;20035;-81
2022/08/12 04:52:09;;;;;;;10.50;7.97;;;17.40;99.90;;;;;;4939296;29;20134;-80
2022/08/12 04:54:36;;;;;;;11.05;8.50;;;17.40;99.90;;;;;;4940060;29;20131;-82
2022/08/12 04:57:02;;;;;;;12.80;8.55;;;17.40;99.90;;;;;;4922945;29;20043;-83
2022/08/12 04:59:29;;;;;;;12.20;8.60;;;17.40;99.90;;;;;;4940214;28;20410;-83
2022/08/12 05:01:56;;;;;;;13.52;10.00;;;17.40;99.90;;;;;;4938761;29;20047;-83
2022/08/12 05:04:24;;;;;;;13.57;9.65;;;17.40;99.90;;;;;;4938600;29;20040;-83
2022/08/12 05:06:50;;;;;;;14.52;9.90;;;17.40;99.90;;;;;;4939852;29;20052;-84
2022/08/12 05:09:16;;;;;;;10.98;8.88;;;17.40;99.90;;;;;;4941033;29;20042;-83
2022/08/12 05:11:42;;;;;;;15.90;9.80;;;17.40;99.90;;;;;;4939994;29;20055;-83
2022/08/12 05:14:10;;;;;;;12.95;9.27;;;17.40;99.90;;;;;;4938520;29;20044;-84
2022/08/12 05:16:36;;;;;;;12.68;9.13;;;17.40;99.90;;;;;;4939821;29;20527;-82
2022/08/12 05:19:02;;;;;;;15.40;9.90;;;17.50;99.90;;;;;;4939502;29;20044;-79
2022/08/12 05:21:28;;;;;;;12.93;9.88;;;17.50;99.90;;;;;;4939626;29;20110;-78
2022/08/12 05:23:54;;;;;;;13.13;10.00;;;17.50;99.90;;;;;;4937835;28;20099;-79
2022/08/12 05:26:21;;;;;;;13.25;9.85;;;17.40;99.90;;;;;;4937743;29;20044;-78
2022/08/12 05:28:48;;;;;;;11.88;8.90;;;17.40;99.90;;;;;;4937329;29;20078;-79
2022/08/12 05:31:16;;;;;;;11.98;9.00;;;17.50;99.90;;;;;;4937475;29;20083;-79
2022/08/12 05:33:44;;;;;;;11.55;8.32;;;17.50;99.90;;;;;;4937429;29;20054;-80
2022/08/12 05:36:12;;;;;;;11.10;8.20;;;17.50;99.90;;;;;;4937966;29;20044;-79
2022/08/12 05:38:57;;;;;;;13.27;8.20;;;17.50;99.90;;;;;;4938850;29;20044;-79
2022/08/12 05:41:30;;;;;;;9.98;8.18;;;17.60;99.90;;;;;;4938737;29;20395;-80
2022/08/12 05:44:01;;;;;;;11.93;8.88;;;17.60;99.90;;;;;;4937248;29;20079;-79
2022/08/12 05:46:28;;;;;;;11.55;8.75;;;17.60;99.90;;;;;;4937154;29;20055;-79
2022/08/12 05:48:55;;;;;;;11.65;8.55;;;17.60;99.90;;;;;;4937439;29;20047;-78
2022/08/12 05:51:29;;;;;;;10.55;7.70;;;17.60;99.90;;;;;;4937179;29;20455;-79
2022/08/12 05:53:56;;;;;;;12.52;7.88;;;17.60;99.90;;;;;;4936169;29;20102;-78
2022/08/12 05:56:27;;;;;;;11.30;7.85;;;17.60;99.90;;;;;;4936961;29;20083;-78
2022/08/12 05:58:54;;;;;;;8.82;7.18;;;17.70;99.90;;;;;;4936317;29;20043;-78
2022/08/12 06:01:21;;;;;;;9.93;8.00;;;17.70;99.90;;;;;;4936047;29;20048;-79
2022/08/12 06:03:47;;;;;;;11.90;7.57;;;17.70;99.90;;;;;;4936027;29;20040;-79
2022/08/12 06:06:15;;;;;;;9.98;7.50;;;17.80;99.90;;;;;;4936524;29;20094;-79
2022/08/12 06:08:54;;;;;;;11.85;7.00;;;17.80;99.90;;;;;;4937443;29;20040;-79
2022/08/12 06:11:22;;;;;;;14.52;7.35;;;17.80;99.90;;;;;;4936237;29;20507;-79
2022/08/12 06:13:47;;;;;;;11.27;7.13;;;17.90;99.90;;;;;;4936336;29;20039;-80
2022/08/12 06:16:16;;;;;;;9.82;6.72;;;17.90;99.90;;;;;;4920937;29;20399;-79
2022/08/12 06:18:43;;;;;;;9.10;6.10;;;17.90;99.90;;;;;;4936843;29;20048;-79
2022/08/12 06:21:11;;;;;;;12.48;7.03;;;17.90;99.90;;;;;;4936485;29;20514;-79
2022/08/12 06:23:37;;;;;;;13.65;6.82;;;18.00;99.90;;;;;;4938035;29;20051;-79
2022/08/12 06:26:04;;;;;;;11.82;6.32;;;18.00;99.90;;;;;;4937897;29;20036;-79
2022/08/12 06:28:30;;;;;;;10.07;5.80;;;18.10;99.90;;;;;;4936791;29;20119;-79
2022/08/12 06:30:57;;;;;;;8.20;5.47;;;18.10;99.90;;;;;;4937891;29;20127;-78
2022/08/12 06:33:23;;;;;;;8.85;5.53;;;18.10;99.90;;;;;;4936109;29;20062;-78
2022/08/12 06:35:50;;;;;;;7.45;4.80;;;18.20;99.90;;;;;;4937568;29;20054;-78
2022/08/12 06:38:20;;;;;;;8.52;4.45;;;18.30;99.90;;;;;;4936168;29;20048;-84
2022/08/12 06:43:39;;;;;;;7.70;4.53;;;18.30;99.90;;;;;;4937346;29;20062;-82
2022/08/12 06:46:05;;;;;;;5.82;4.40;;;18.40;99.90;;;;;;4936758;29;20449;-82
2022/08/12 06:48:31;;;;;;;8.18;4.13;;;18.50;99.90;;;;;;4920704;29;20050;-84
2022/08/12 06:50:58;;;;;;;6.07;4.13;;;18.50;99.90;;;;;;4937843;29;20439;-80
2022/08/12 06:53:25;;;;;;;9.60;4.43;;;18.60;99.90;;;;;;4937288;29;20048;-79
2022/08/12 06:55:54;;;;;;;7.78;4.03;;;18.60;99.90;;;;;;4936334;29;20083;-78
2022/08/12 06:58:23;;;;;;;6.30;3.53;;;18.60;99.90;;;;;;4937599;29;20082;-82
2022/08/12 07:00:50;;;;;;;5.25;3.85;;;18.70;99.90;;;;;;4937109;29;20036;-80
2022/08/12 07:03:21;;;;;;;6.82;3.70;;;18.80;99.90;;;;;;4937337;29;20054;-75
2022/08/12 07:05:58;;;;;;;6.95;3.40;;;18.80;99.90;;;;;;4937955;29;20118;-78
2022/08/12 07:08:34;;;;;;;6.50;3.45;;;18.90;99.90;;;;;;4935418;29;20466;-78
2022/08/12 07:11:03;;;;;;;6.95;3.50;;;19.00;99.90;;;;;;4934871;29;20044;-78
2022/08/12 07:13:43;;;;;;;7.70;3.78;;;19.00;99.90;;;;;;4936536;29;20491;-79
2022/08/12 07:16:17;;;;;;;5.07;3.72;;;19.10;99.90;;;;;;4935531;29;20047;-77
2022/08/12 07:18:49;;;;;;;7.60;3.10;;;19.20;99.90;;;;;;4935650;29;20401;-77
2022/08/12 07:21:16;;;;;;;4.53;3.22;;;19.20;99.90;;;;;;4935442;29;20055;-76
2022/08/12 07:23:42;;;;;;;6.40;3.10;;;19.20;99.90;;;;;;4936765;29;20040;-77
2022/08/12 07:26:10;;;;;;;6.13;3.30;;;19.30;99.90;;;;;;4935442;29;20126;-78
2022/08/12 07:28:38;;;;;;;4.45;3.13;;;19.40;99.90;;;;;;4935471;29;20163;-78
2022/08/12 07:31:08;;;;;;;5.13;2.95;;;19.40;99.90;;;;;;4935722;29;20047;-77
2022/08/12 07:33:37;;;;;;;5.97;3.08;;;19.50;99.90;;;;;;4936408;29;20503;-78
2022/08/12 07:36:05;;;;;;;7.32;3.67;;;19.60;99.90;;;;;;4935191;29;20076;-78
2022/08/12 07:38:33;;;;;;;4.95;2.90;;;19.70;99.90;;;;;;4936736;29;20051;-76
2022/08/12 07:41:11;;;;;;;6.03;3.28;;;19.80;99.90;;;;;;4935392;29;20141;-78
2022/08/12 07:43:41;;;;;;;5.47;2.67;;;19.90;99.90;;;;;;4935176;29;20048;-77
2022/08/12 07:46:10;;;;;;;6.70;3.35;;;20.00;99.90;;;;;;4935286;29;20122;-78
2022/08/12 07:48:45;;;;;;;6.10;2.97;;;20.10;99.90;;;;;;4919924;29;20051;-77
2022/08/12 07:51:12;;;;;;;6.97;3.22;;;20.20;99.90;;;;;;4934886;29;20171;-78
2022/08/12 07:53:39;;;;;;;6.30;2.90;;;20.30;99.90;;;;;;4934956;29;20047;-78
2022/08/12 07:56:08;;;;;;;6.00;3.10;;;20.40;99.90;;;;;;4936721;29;20054;-76
2022/08/12 07:58:38;;;;;;;5.10;2.85;;;20.50;99.90;;;;;;4936200;29;20396;-77
2022/08/12 08:01:11;;;;;;;7.20;2.78;;;20.60;99.90;;;;;;4934618;29;20075;-77
2022/08/12 08:04:54;;;;;;;5.97;2.65;;;20.70;99.90;;;;;;4936168;29;20503;-79
2022/08/12 08:06:30;;;;;;;5.80;3.03;;;20.80;99.90;;;;;;4934795;29;20376;-79
2022/08/12 08:08:57;;;;;;;6.38;2.72;;;20.90;99.90;;;;;;4934738;29;20051;-77
2022/08/12 08:14:09;;;;;;;6.70;2.78;;;21.10;99.90;;;;;;4936015;29;20043;-77
2022/08/12 08:16:36;;;;;;;4.90;2.70;;;21.30;99.90;;;;;;4935175;29;20135;-79
2022/08/12 08:19:03;;;;;;;7.22;2.63;;;21.40;99.90;;;;;;4938161;29;20138;-79
2022/08/12 08:21:31;;;;;;;3.97;2.25;;;21.60;99.90;;;;;;4940153;29;20174;-79
2022/08/12 08:24:13;;;;;;;4.50;2.60;;;21.80;99.90;;;;;;4922794;29;20499;-80
2022/08/12 08:26:43;;;;;;;6.50;2.40;;;22.00;99.90;;;;;;4938531;29;20086;-77
2022/08/12 08:29:11;;;;;;;6.75;2.55;;;22.10;99.90;;;;;;4938444;29;20032;-77
2022/08/12 08:31:42;;;;;;;4.68;2.60;;;22.20;99.90;;;;;;4938217;29;20052;-77
2022/08/12 08:34:08;;;;;;;5.57;2.67;;;22.30;99.90;;;;;;4938271;29;20411;-79
2022/08/12 08:36:34;;;;;;;4.47;2.58;;;22.40;99.90;;;;;;4938320;29;20056;-78
2022/08/12 08:38:59;;;;;;;3.92;2.30;;;22.50;99.90;;;;;;4939216;29;20131;-78
2022/08/12 08:44:15;;;;;;;5.53;2.58;;;22.70;99.90;;;;;;4920439;29;20131;-76
2022/08/12 08:46:43;;;;;;;5.43;2.35;;;23.00;99.90;;;;;;4939171;29;20039;-77
2022/08/12 08:49:10;;;;;;;6.60;2.20;;;23.10;99.90;;;;;;4938560;29;20094;-75
2022/08/12 08:51:37;;;;;;;4.70;2.50;;;23.30;99.90;;;;;;4940142;29;20094;-77
2022/08/12 08:54:05;;;;;;;6.57;2.80;;;23.40;99.90;;;;;;4940875;29;20050;-76
2022/08/12 08:56:31;;;;;;;6.57;2.40;;;23.50;99.90;;;;;;4939081;29;20126;-78
2022/08/12 08:58:58;;;;;;;6.28;2.05;;;23.60;99.90;;;;;;4938099;29;20070;-77
2022/08/12 09:01:24;;;;;;;7.15;2.50;;;23.80;99.90;;;;;;4938756;29;20078;-78
2022/08/12 09:03:50;;;;;;;5.55;2.33;;;23.90;99.90;;;;;;4939139;29;20091;-80
2022/08/12 09:06:15;;;;;;;6.68;2.28;;;24.10;99.90;;;;;;4938193;29;20091;-78
2022/08/12 09:08:42;;;;;;;5.47;2.50;;;24.20;99.90;;;;;;4938130;29;20476;-78
2022/08/12 09:13:52;;;;;;;5.43;2.60;;;24.60;99.90;;;;;;4937864;29;20487;-79
2022/08/12 09:16:18;;;;;;;4.53;2.40;;;24.80;99.90;;;;;;4937983;29;20059;-79
2022/08/12 09:18:44;;;;;;;5.13;2.75;;;24.90;99.90;;;;;;4937920;29;20055;-77
2022/08/12 09:21:10;;;;;;;8.32;2.70;;;25.10;99.90;;;;;;4937381;29;20047;-79
2022/08/12 09:23:36;;;;;;;5.43;2.58;;;25.20;99.90;;;;;;4939024;29;20134;-79
2022/08/12 09:26:02;;;;;;;6.68;2.30;;;25.30;99.90;;;;;;4938962;29;20122;-79
2022/08/12 09:28:28;;;;;;;10.25;2.35;;;25.50;99.90;;;;;;4938336;29;20039;-79
2022/08/12 09:30:58;;;;;;;11.27;2.80;;;25.70;99.90;;;;;;4938736;29;20044;-77
2022/08/12 09:33:29;;;;;;;9.25;2.45;;;25.90;99.90;;;;;;4937334;29;20052;-78
2022/08/12 09:35:56;;;;;;;9.57;2.47;;;26.20;99.90;;;;;;4938840;29;20058;-77
2022/08/12 09:38:22;;;;;;;7.07;2.55;;;26.40;99.90;;;;;;4937121;29;20048;-79
2022/08/12 09:40:48;;;;;;;4.90;2.38;;;26.60;99.90;;;;;;4937168;29;20051;-78
2022/08/12 09:45:59;;;;;;;8.98;3.38;;;26.90;99.90;;;;;;4938805;29;20075;-79
2022/08/12 09:48:25;;;;;;;4.85;2.40;;;27.00;99.90;;;;;;4937000;29;20536;-79
2022/08/12 09:50:51;;;;;;;7.88;2.53;;;27.20;99.90;;;;;;4937994;29;20047;-78
2022/08/12 09:53:23;;;;;;;11.63;2.50;;;27.30;99.90;;;;;;4938401;29;20071;-78
2022/08/12 09:55:57;;;;;;;4.70;2.47;;;27.40;99.90;;;;;;4936936;29;20051;-78
2022/08/12 09:58:30;;;;;;;5.13;2.30;;;27.60;99.90;;;;;;4921035;29;20058;-79
2022/08/12 10:01:00;;;;;;;5.22;1.98;;;27.80;99.90;;;;;;4936546;29;20048;-77
2022/08/12 10:03:33;;;;;;;3.72;1.95;;;27.90;96.30;;;;;;4936636;29;20062;-78
2022/08/12 10:06:00;;;;;;;4.88;2.35;;;28.10;93.10;;;;;;4921137;29;20044;-79
2022/08/12 10:08:31;;;;;;;8.52;2.63;;;28.30;92.60;;;;;;4936921;28;20396;-78
2022/08/12 10:13:43;;;;;;;11.05;2.13;;;28.60;92.50;;;;;;4936458;29;20060;-79
2022/08/12 10:16:19;;;;;;;6.35;1.98;;;28.80;90.90;;;;;;4937658;29;20123;-77
2022/08/12 10:18:55;;;;;;;4.47;1.90;;;29.00;89.30;;;;;;4936509;29;20071;-78
2022/08/12 10:21:24;;;;;;;4.00;1.85;;;29.00;88.20;;;;;;4937485;29;20126;-78
2022/08/12 10:23:52;;;;;;;7.68;2.13;;;29.20;86.40;;;;;;4936378;29;20043;-79
2022/08/12 10:31:50;;;;;;;4.45;1.80;;;29.50;83.40;;;;;;4936142;29;20052;-78
2022/08/12 10:34:18;;;;;;;6.20;2.05;;;29.70;83.70;;;;;;4936073;29;20043;-78
2022/08/12 10:36:45;;;;;;;5.00;1.75;;;29.80;81.10;;;;;;4937213;29;20507;-78
2022/08/12 10:39:13;;;;;;;7.75;2.25;;;29.90;79.50;;;;;;4937427;29;20050;-79
2022/08/12 10:44:23;;;;;;;4.05;1.88;;;30.00;77.30;;;;;;4937623;29;20047;-77
2022/08/12 10:46:51;;;;;;;3.58;1.60;;;30.10;74.80;;;;;;4937306;29;20395;-77
2022/08/12 10:49:18;;;;;;;3.60;1.88;;;30.10;74.80;;;;;;4937738;29;20079;-76
2022/08/12 10:51:45;;;;;;;5.13;1.77;;;30.20;73.80;;;;;;4935652;29;20056;-78
2022/08/12 10:54:13;;;;;;;6.50;1.80;;;30.30;72.30;;;;;;4935917;29;20392;-77
2022/08/12 10:56:39;;;;;;;3.17;1.88;;;30.40;72.30;;;;;;4919921;29;20503;-80
2022/08/12 10:59:06;;;;;;;2.90;1.58;;;30.50;72.10;;;;;;4937160;29;20048;-78
2022/08/12 11:01:32;;;;;;;3.40;1.70;;;30.60;71.10;;;;;;4936759;29;20036;-80
2022/08/12 11:04:01;;;;;;;5.72;1.90;;;30.70;71.30;;;;;;4936901;29;20462;-77
2022/08/12 11:06:27;;;;;;;7.28;2.20;;;30.80;70.30;;;;;;4937248;29;20453;-77
2022/08/12 11:08:55;;;;;;;2.85;1.77;;;30.90;69.60;;;;;;4935591;29;20047;-77
2022/08/12 11:11:21;;;;;;;3.42;2.00;;;30.90;68.20;;;;;;4937132;29;20504;-79
2022/08/12 11:13:47;;;;;;;6.95;1.75;;;31.00;68.30;;;;;;4936840;29;20122;-77
2022/08/12 11:16:15;;;;;;;6.20;1.90;;;30.90;66.70;;;;;;4936730;29;20114;-78
2022/08/12 11:18:40;;;;;;;4.78;1.83;;;30.90;65.50;;;;;;4935544;28;20043;-78
2022/08/12 11:21:06;;;;;;;4.80;1.75;;;30.90;65.00;;;;;;4935278;29;20049;-78
2022/08/12 11:23:32;;;;;;;5.05;1.70;;;31.00;64.80;;;;;;4936087;29;20043;-79
2022/08/12 11:25:58;;;;;;;2.75;1.80;;;31.10;64.30;;;;;;4937149;29;20039;-79
2022/08/12 11:28:23;;;;;;;3.65;1.70;;;31.10;63.20;;;;;;4935670;29;20054;-78
2022/08/12 11:30:49;;;;;;;4.93;1.73;;;31.10;64.40;;;;;;4936959;29;20047;-79
2022/08/12 11:33:14;;;;;;;3.65;1.90;;;31.20;62.40;;;;;;4919845;29;20071;-77
2022/08/12 11:35:42;;;;;;;7.90;1.88;;;31.30;61.80;;;;;;4936568;29;20169;-78
2022/08/12 11:38:09;;;;;;;4.63;1.52;;;31.20;61.80;;;;;;4935422;29;20043;-78
2022/08/12 11:40:34;;;;;;;5.38;1.80;;;31.20;60.60;;;;;;4936467;29;20046;-78
2022/08/12 11:43:00;;;;;;;3.58;1.63;;;31.20;60.80;;;;;;4936553;29;20044;-77
2022/08/12 11:45:26;;;;;;;4.72;1.77;;;31.30;60.50;;;;;;4935030;29;20404;-77
2022/08/12 11:47:54;;;;;;;5.45;1.80;;;31.40;60.30;;;;;;4934918;29;20091;-80
2022/08/12 11:50:20;;;;;;;3.78;1.80;;;31.50;60.80;;;;;;4934985;29;20046;-79
2022/08/12 11:52:47;;;;;;;4.00;1.63;;;31.50;59.10;;;;;;4934336;29;20134;-79
2022/08/12 11:55:13;;;;;;;7.80;1.70;;;31.40;57.80;;;;;;4919137;29;20121;-81
2022/08/12 11:57:53;;;;;;;5.18;1.75;;;31.50;60.80;;;;;;4934809;29;20396;-79
2022/08/12 12:00:20;;;;;;;4.53;1.70;;;31.50;60.80;;;;;;4918852;29;20043;-79
2022/08/12 12:02:46;;;;;;;3.45;1.40;;;31.60;60.40;;;;;;4935919;29;20051;-79
2022/08/12 12:05:15;;;;;;;4.70;1.70;;;31.70;58.90;;;;;;4935030;29;20036;-80
2022/08/12 12:07:42;;;;;;;3.42;1.40;;;31.80;58.70;;;;;;4936323;29;20046;-79
2022/08/12 12:10:09;;;;;;;5.53;2.10;;;31.80;58.30;;;;;;4934921;29;20123;-81
2022/08/12 12:12:34;;;;;;;3.30;1.50;;;31.90;58.70;;;;;;4936264;29;20451;-80
2022/08/12 12:15:01;;;;;;;3.38;1.60;;;32.00;59.30;;;;;;4934734;29;20087;-83
2022/08/12 12:17:26;;;;;;;3.78;1.60;;;32.00;57.70;;;;;;4934780;29;20047;-78
2022/08/12 12:19:53;;;;;;;3.08;1.50;;;32.00;57.80;;;;;;4934710;29;20138;-80
2022/08/12 12:22:20;;;;;;;3.85;1.45;;;32.00;55.90;;;;;;4934638;29;20048;-78
2022/08/12 12:24:46;;;;;;;3.67;1.40;;;32.00;56.60;;;;;;4934844;29;20052;-78
2022/08/12 12:27:12;;;;;;;2.60;1.63;;;32.10;56.00;;;;;;4935102;29;20094;-77
2022/08/12 12:29:38;;;;;;;2.97;1.70;;;32.00;56.10;;;;;;4934626;29;20039;-78
2022/08/12 12:32:04;;;;;;;5.93;1.50;;;32.00;57.20;;;;;;4934527;29;20155;-81
2022/08/12 12:34:30;;;;;;;2.80;1.60;;;32.10;56.80;;;;;;4934785;29;20046;-80
2022/08/12 12:36:55;;;;;;;2.58;1.50;;;32.20;56.60;;;;;;4935830;29;20494;-82
2022/08/12 12:39:21;;;;;;;3.10;1.50;;;32.30;56.50;;;;;;4935159;29;20040;-79
2022/08/12 12:41:47;;;;;;;4.78;1.70;;;32.30;55.60;;;;;;4934376;29;20110;-79
2022/08/12 12:44:12;;;;;;;5.35;1.50;;;32.30;57.50;;;;;;4934591;29;20066;-83
2022/08/12 12:46:38;;;;;;;6.05;1.55;;;32.30;55.90;;;;;;4934641;29;20388;-80
2022/08/12 12:49:03;;;;;;;6.18;1.50;;;32.30;55.20;;;;;;4935951;29;20039;-81
2022/08/12 12:51:29;;;;;;;4.70;1.40;;;32.20;55.20;;;;;;4934450;29;20047;-80
2022/08/12 12:53:55;;;;;;;5.05;2.00;;;32.20;54.00;;;;;;4936065;29;20365;-80
2022/08/12 12:56:22;;;;;;;3.22;1.52;;;32.20;53.90;;;;;;4934457;29;20340;-79
2022/08/12 12:58:52;;;;;;;6.90;2.03;;;32.20;54.80;;;;;;4934745;29;20052;-80
2022/08/12 13:01:25;;;;;;;3.25;1.70;;;32.20;55.30;;;;;;4934317;29;20036;-78
2022/08/12 13:03:58;;;;;;;3.88;1.83;;;32.20;54.20;;;;;;4935793;29;20048;-78
2022/08/12 13:06:25;;;;;;;4.63;1.60;;;32.20;53.70;;;;;;4939515;29;20051;-79
2022/08/12 13:09:00;;;;;;;5.85;1.50;;;32.20;53.50;;;;;;4939574;29;20035;-81
2022/08/12 13:11:28;;;;;;;6.25;1.88;;;32.20;53.20;;;;;;4937965;29;20054;-81
2022/08/12 13:13:55;;;;;;;3.50;1.65;;;32.10;53.80;;;;;;4921979;29;20071;-79
2022/08/12 13:16:21;;;;;;;4.20;1.70;;;32.20;53.10;;;;;;4938977;29;20047;-80
2022/08/12 13:18:48;;;;;;;3.58;1.70;;;32.20;53.40;;;;;;4938835;29;20043;-81
2022/08/12 13:21:17;;;;;;;6.70;1.63;;;32.20;53.20;;;;;;4938750;29;20036;-79
2022/08/12 13:23:44;;;;;;;6.45;1.88;;;32.20;54.00;;;;;;4939056;29;20458;-80
2022/08/12 13:26:18;;;;;;;3.20;1.80;;;32.30;54.40;;;;;;4938861;29;20082;-80
2022/08/12 13:28:46;;;;;;;4.10;1.60;;;32.40;54.70;;;;;;4921571;29;20127;-80
2022/08/12 13:31:16;;;;;;;6.82;1.70;;;32.50;54.40;;;;;;4937488;29;20460;-77
2022/08/12 13:33:42;;;;;;;2.38;1.48;;;32.50;54.00;;;;;;4937733;29;20047;-80
2022/08/12 13:36:09;;;;;;;5.57;1.80;;;32.50;53.00;;;;;;4937446;29;20506;-81
2022/08/12 13:38:37;;;;;;;3.15;1.48;;;32.50;53.40;;;;;;4937611;29;20099;-79
2022/08/12 13:41:05;;;;;;;3.72;1.65;;;32.60;53.40;;;;;;4921284;29;20050;-81
2022/08/12 13:43:32;;;;;;;6.18;1.70;;;32.70;53.10;;;;;;4936923;29;20130;-78
2022/08/12 13:45:58;;;;;;;6.57;1.70;;;32.70;52.80;;;;;;4937269;29;20047;-78
2022/08/12 13:48:24;;;;;;;4.95;1.70;;;32.70;52.10;;;;;;4938013;29;20040;-80
2022/08/12 13:50:51;;;;;;;4.75;1.80;;;32.70;51.60;;;;;;4937382;29;20494;-79
2022/08/12 13:53:18;;;;;;;7.65;1.85;;;32.60;52.90;;;;;;4936953;29;20055;-80
2022/08/12 13:55:46;;;;;;;4.38;1.90;;;32.60;54.10;;;;;;4936903;29;20060;-80
2022/08/12 13:58:17;;;;;;;2.90;1.52;;;32.70;53.90;;;;;;4921352;29;20047;-79
2022/08/12 14:00:45;;;;;;;3.90;1.55;;;32.80;54.30;;;;;;4938057;29;20432;-81
2022/08/12 14:03:15;;;;;;;4.97;1.60;;;32.70;52.80;;;;;;4936750;29;20050;-79
2022/08/12 14:05:41;;;;;;;8.15;1.77;;;32.70;52.50;;;;;;4937820;29;20035;-80
2022/08/12 14:08:09;;;;;;;2.65;1.50;;;32.70;52.60;;;;;;4936630;29;20050;-79
2022/08/12 14:10:50;;;;;;;2.58;1.50;;;32.80;53.10;;;;;;4936590;29;20055;-81
2022/08/12 14:13:19;;;;;;;3.60;1.70;;;32.90;52.70;;;;;;4936884;29;20052;-78
2022/08/12 14:15:49;;;;;;;6.25;1.73;;;32.80;51.30;;;;;;4935618;29;20051;-80
2022/08/12 14:18:21;;;;;;;3.75;1.65;;;32.70;51.30;;;;;;4936786;28;20099;-78
2022/08/12 14:20:50;;;;;;;3.95;1.90;;;32.70;51.90;;;;;;4936495;29;20051;-81
2022/08/12 14:23:17;;;;;;;3.53;1.70;;;32.60;51.40;;;;;;4936327;29;20143;-79
2022/08/12 14:25:43;;;;;;;4.22;1.83;;;32.50;52.50;;;;;;4937887;29;20035;-78
2022/08/12 14:28:10;;;;;;;4.75;1.77;;;32.60;52.50;;;;;;4937594;29;20515;-79
2022/08/12 14:30:57;;;;;;;4.57;1.98;;;32.70;52.30;;;;;;4936477;29;20052;-78
2022/08/12 14:33:24;;;;;;;8.75;1.80;;;32.80;52.80;;;;;;4937944;29;20056;-79
2022/08/12 14:35:51;;;;;;;3.90;1.55;;;32.80;51.90;;;;;;4936196;29;20491;-79
2022/08/12 14:38:19;;;;;;;8.93;2.00;;;32.80;52.90;;;;;;4936351;29;20444;-78
2022/08/12 14:40:49;;;;;;;4.80;1.80;;;32.80;52.10;;;;;;4936299;29;20399;-80
2022/08/12 14:43:15;;;;;;;4.47;1.80;;;32.70;52.60;;;;;;4937367;29;20080;-79
2022/08/12 14:45:42;;;;;;;4.65;2.15;;;32.70;52.70;;;;;;4936002;29;20075;-79
2022/08/12 14:48:09;;;;;;;4.45;1.90;;;32.70;53.70;;;;;;4920084;29;20496;-81
2022/08/12 14:50:35;;;;;;;4.20;1.80;;;32.80;54.00;;;;;;4937200;29;20507;-81
2022/08/12 14:53:01;;;;;;;6.30;2.78;;;32.80;54.00;;;;;;4935833;29;20047;-79
2022/08/12 14:55:32;;;;;;;6.63;2.10;;;32.90;54.00;;;;;;4937018;29;20047;-81
2022/08/12 14:57:59;;;;;;;5.70;2.55;;;32.90;52.70;;;;;;4935902;29;20110;-78
2022/08/12 15:03:13;;;;;;;4.10;2.00;;;32.90;53.50;;;;;;4936951;29;20563;-80
2022/08/12 15:05:43;;;;;;;3.70;2.13;;;32.90;53.40;;;;;;4937783;29;20103;-78
2022/08/12 15:08:12;;;;;;;6.28;1.90;;;32.90;53.00;;;;;;4935698;29;20478;-78
2022/08/12 15:10:41;;;;;;;5.63;2.10;;;32.80;53.60;;;;;;4935398;29;20075;-79
2022/08/12 15:13:08;;;;;;;4.82;2.60;;;32.80;53.50;;;;;;4935342;29;20512;-79
2022/08/12 15:15:40;;;;;;;4.82;2.20;;;32.80;54.20;;;;;;4919842;29;20039;-78
2022/08/12 15:18:05;;;;;;;6.55;2.13;;;32.80;53.50;;;;;;4936922;29;20122;-79
2022/08/12 15:20:32;;;;;;;4.63;2.20;;;32.80;54.90;;;;;;4936108;29;20543;-80
2022/08/12 15:22:58;;;;;;;4.43;2.10;;;32.90;54.70;;;;;;4935754;29;20495;-78
2022/08/12 15:25:29;;;;;;;10.40;1.88;;;32.90;53.00;;;;;;4919640;29;20047;-80
2022/08/12 15:27:58;;;;;;;3.83;1.88;;;32.80;53.40;;;;;;4936266;29;20176;-80
2022/08/12 15:30:25;;;;;;;5.57;1.67;;;32.80;53.90;;;;;;4935526;29;20048;-80
2022/08/12 15:32:57;;;;;;;3.92;1.80;;;32.80;53.20;;;;;;4936699;29;20040;-82
2022/08/12 15:35:27;;;;;;;4.20;1.98;;;32.80;53.40;;;;;;4935276;29;20058;-80
2022/08/12 15:38:01;;;;;;;4.03;1.92;;;32.80;54.00;;;;;;4935141;29;20051;-77
2022/08/12 15:40:28;;;;;;;6.30;1.92;;;32.70;52.80;;;;;;4935070;29;20058;-79
2022/08/12 15:42:54;;;;;;;4.90;2.20;;;32.60;52.40;;;;;;4936573;29;20040;-79
2022/08/12 15:45:20;;;;;;;7.22;2.20;;;32.60;52.90;;;;;;4935081;29;20046;-79
2022/08/12 15:47:46;;;;;;;6.28;1.88;;;32.50;53.50;;;;;;4935104;29;20086;-78
2022/08/12 15:50:12;;;;;;;10.20;4.22;;;32.50;53.50;;;;;;4935008;29;20040;-80
2022/08/12 15:52:38;;;;;;;6.78;2.30;;;32.50;53.60;;;;;;4934822;29;20043;-81
2022/08/12 15:55:06;;;;;;;4.45;2.13;;;32.50;54.40;;;;;;4935150;29;20049;-78
2022/08/12 15:57:31;;;;;;;4.90;1.95;;;32.50;54.50;;;;;;4936578;29;20031;-79
2022/08/12 15:59:58;;;;;;;5.93;2.50;;;32.50;54.60;;;;;;4935051;29;20047;-78
2022/08/12 16:02:25;;;;;;;3.60;2.42;;;32.50;54.60;;;;;;4935882;29;20040;-79
2022/08/12 16:04:51;;;;;;;5.25;2.60;;;32.40;54.30;;;;;;4919390;29;20039;-79
2022/08/12 16:07:20;;;;;;;4.90;2.60;;;32.40;54.40;;;;;;4935185;29;20035;-78
2022/08/12 16:09:46;;;;;;;6.50;2.97;;;32.40;54.40;;;;;;4936532;29;20043;-80
2022/08/12 16:12:11;;;;;;;7.63;2.65;;;32.30;54.10;;;;;;4935044;29;20046;-79
2022/08/12 16:14:37;;;;;;;4.32;2.50;;;32.30;55.10;;;;;;4936659;29;20087;-78
2022/08/12 16:17:03;;;;;;;6.65;2.40;;;32.30;55.20;;;;;;4935155;29;20048;-80
2022/08/12 16:19:29;;;;;;;4.32;2.50;;;32.20;54.70;;;;;;4936250;29;20499;-82
2022/08/12 16:21:55;;;;;;;6.43;2.28;;;32.10;55.10;;;;;;4935885;29;20050;-80
2022/08/12 16:24:21;;;;;;;7.32;2.00;;;32.20;54.90;;;;;;4936142;29;20043;-79
2022/08/12 16:26:47;;;;;;;5.35;2.53;;;32.10;55.20;;;;;;4934598;29;20126;-81
2022/08/12 16:29:13;;;;;;;4.40;2.17;;;32.10;55.70;;;;;;4936254;29;20063;-80
2022/08/12 16:31:39;;;;;;;8.90;2.15;;;32.10;55.30;;;;;;4934876;29;20047;-79
2022/08/12 16:34:14;;;;;;;3.13;2.10;;;32.00;56.20;;;;;;4934559;29;20090;-80
2022/08/12 16:36:44;;;;;;;6.53;2.20;;;31.90;55.70;;;;;;4934611;29;20047;-79
2022/08/12 16:39:10;;;;;;;5.30;2.00;;;31.90;55.70;;;;;;4936352;29;20043;-79
2022/08/12 16:41:36;;;;;;;5.55;2.20;;;31.80;55.70;;;;;;4938543;29;20048;-78